Map

Track Data

SID SEASON NUMBER BASIN SUBBASIN NAME ISO_TIME NATURE LAT LON WMO_WIND WMO_PRES WMO_AGENCY TRACK_TYPE DIST2LAND LANDFALL IFLAG USA_AGENCY USA_ATCF_ID USA_LAT USA_LON USA_RECORD USA_STATUS USA_WIND USA_PRES USA_SSHS USA_R34_NE USA_R34_SE USA_R34_SW USA_R34_NW USA_R50_NE USA_R50_SE USA_R50_SW USA_R50_NW USA_R64_NE USA_R64_SE USA_R64_SW USA_R64_NW USA_POCI USA_ROCI USA_RMW USA_EYE TOKYO_LAT TOKYO_LON TOKYO_GRADE TOKYO_WIND TOKYO_PRES TOKYO_R50_DIR TOKYO_R50_LONG TOKYO_R50_SHORT TOKYO_R30_DIR TOKYO_R30_LONG TOKYO_R30_SHORT TOKYO_LAND CMA_LAT CMA_LON CMA_CAT CMA_WIND CMA_PRES HKO_LAT HKO_LON HKO_CAT HKO_WIND HKO_PRES NEWDELHI_LAT NEWDELHI_LON NEWDELHI_GRADE NEWDELHI_WIND NEWDELHI_PRES NEWDELHI_CI NEWDELHI_DP NEWDELHI_POCI REUNION_LAT REUNION_LON REUNION_TYPE REUNION_WIND REUNION_PRES REUNION_TNUM REUNION_CI REUNION_RMW REUNION_R34_NE REUNION_R34_SE REUNION_R34_SW REUNION_R34_NW REUNION_R50_NE REUNION_R50_SE REUNION_R50_SW REUNION_R50_NW REUNION_R64_NE REUNION_R64_SE REUNION_R64_SW REUNION_R64_NW BOM_LAT BOM_LON BOM_TYPE BOM_WIND BOM_PRES BOM_TNUM BOM_CI BOM_RMW BOM_R34_NE BOM_R34_SE BOM_R34_SW BOM_R34_NW BOM_R50_NE BOM_R50_SE BOM_R50_SW BOM_R50_NW BOM_R64_NE BOM_R64_SE BOM_R64_SW BOM_R64_NW BOM_ROCI BOM_POCI BOM_EYE BOM_POS_METHOD BOM_PRES_METHOD NADI_LAT NADI_LON NADI_CAT NADI_WIND NADI_PRES WELLINGTON_LAT WELLINGTON_LON WELLINGTON_WIND WELLINGTON_PRES DS824_LAT DS824_LON DS824_STAGE DS824_WIND DS824_PRES TD9636_LAT TD9636_LON TD9636_STAGE TD9636_WIND TD9636_PRES TD9635_LAT TD9635_LON TD9635_WIND TD9635_PRES TD9635_ROCI NEUMANN_LAT NEUMANN_LON NEUMANN_CLASS NEUMANN_WIND NEUMANN_PRES MLC_LAT MLC_LON MLC_CLASS MLC_WIND MLC_PRES USA_GUST BOM_GUST BOM_GUST_PER REUNION_GUST REUNION_GUST_PER USA_SEAHGT USA_SEARAD_NE USA_SEARAD_SE USA_SEARAD_SW USA_SEARAD_NW STORM_SPEED STORM_DIR
1973060S08161 1973 28 SP MM MADGE 1973-02-28 17:00:00 NR -8.10000 160.800 25 1003 bom main 33 33 ______O_______ -1 -8.10000 160.800 20 25 1003 1.50000 45 45 2 250
1973060S08161 1973 28 SP MM MADGE 1973-02-28 18:00:00 TS -8.11333 160.762 main 33 24 ______P__O__O_ -1 -8.12665 160.675 20 25 1003 -8.10000 160.700 TC 25 1003 -8.10000 161.000 TC 25 1003 7 250
1973060S08161 1973 28 SP MM MADGE 1973-02-28 20:00:00 TS -8.21616 160.480 25 1003 bom main 31 31 ______O__P__P_ -1 -8.20000 160.400 20 25 1003 1.50000 -8.28210 160.386 TC -8.17446 160.694 TC 25 1003 45 45 9 249
1973060S08161 1973 28 SP MM MADGE 1973-02-28 21:00:00 TS -8.27921 160.327 main 44 15 ______P__P__P_ -1 -8.25544 160.240 20 25 1003 -8.37247 160.228 TC -8.21765 160.543 TC 25 1003 10 245
1973060S08161 1973 28 SP MM MADGE 1973-02-28 23:00:00 TS -8.42622 160.018 25 1003 bom main 15 11 ______O__P__P_ -1 -8.40000 159.900 20 25 1003 1.50000 -8.55066 159.909 TC -8.32800 160.245 TC 25 1003 45 45 10 243
1973060S08161 1973 28 SP EA MADGE 1973-03-01 00:00:00 TS -8.50801 159.869 main 11 0 ______P__P__O_ -1 -8.48605 159.762 20 25 1002 -8.63799 159.746 TC -8.40000 160.100 TC 25 1003 10 238
1973060S08161 1973 28 SP EA MADGE 1973-03-01 03:00:00 TS -8.78983 159.439 main 49 49 ______P__P__P_ -1 -8.79458 159.402 20 25 1001 -8.89005 159.242 TC -8.68486 159.672 TC 25 1002 11 237
1973060S08161 1973 28 SP EA MADGE 1973-03-01 06:00:00 TS -9.07969 158.966 main 69 69 ______P__P__O_ -1 -9.11693 158.990 20 25 1000 -9.12213 158.707 TC -9.00000 159.200 TC 25 1001 12 241
1973060S08161 1973 28 SP EA MADGE 1973-03-01 08:00:00 TS -9.25290 158.589 25 1000 bom main 109 95 ______O__P__P_ -1 -9.30000 158.600 20 25 1000 2.00000 -9.26251 158.327 TC -9.19620 158.840 TC 25 1001 45 45 13 247
1973060S08161 1973 28 SP EA MADGE 1973-03-01 09:00:00 TS -9.33007 158.374 main 95 89 ______P__P__P_ -1 -9.37517 158.348 20 25 1000 -9.32766 158.129 TC -9.28738 158.645 TC 25 1001 14 253
1973060S08161 1973 28 SP EA MADGE 1973-03-01 11:00:00 TS -9.46290 157.914 25 1001 bom main 100 100 ______O__P__P_ -1 -9.50000 157.800 20 25 1001 2.00000 -9.44665 157.716 TC -9.44204 158.225 TC 25 1001 45 45 14 255
1973060S08161 1973 28 SP EA MADGE 1973-03-01 12:00:00 TS -9.51182 157.675 main 101 101 ______P__O__O_ -1 -9.53547 157.524 20 25 1000 -9.50000 157.500 TC 30 1001 -9.50000 158.000 TC 25 1001 15 263
1973060S08161 1973 28 SP EA MADGE 1973-03-01 15:00:00 TS -9.58841 156.922 main 149 149 ______P__P__P_ -1 -9.56781 156.692 20 25 1000 -9.63985 156.817 TC 30 1000 -9.55757 157.257 TC 27 1000 15 264
1973060S08161 1973 28 SP EA MADGE 1973-03-01 18:00:00 TS -9.66013 156.180 main 191 191 ______P__P__O_ -1 -9.60276 155.927 20 25 999 -9.77764 156.112 TC 30 1000 -9.60000 156.500 TC 30 999 14 262
1973060S08161 1973 28 SP EA MADGE 1973-03-01 20:00:00 TS -9.75653 155.726 25 999 bom main 235 235 ______O__P__P_ -1 -9.70000 155.500 20 25 999 2.00000 -9.88719 155.650 TC 30 1000 -9.68240 156.029 TC 30 999 45 45 13 256
1973060S08161 1973 28 SP EA MADGE 1973-03-01 21:00:00 TS -9.82563 155.517 main 251 251 ______P__P__P_ -1 -9.78542 155.321 20 25 999 -9.95153 155.426 TC 30 1000 -9.73994 155.805 TC 30 999 13 247
1973060S08161 1973 28 SP EA MADGE 1973-03-01 23:00:00 TS -10.0011 155.129 25 1000 bom main 299 299 ______O__P__P_ -1 -10.0000 155.000 20 25 1000 2.00000 -10.1065 154.999 TC 30 1000 -9.89690 155.389 TC 30 999 45 45 13 243
1973060S08161 1973 28 SP EA MADGE 1973-03-02 00:00:00 TS -10.1082 154.948 main 323 323 ______P__O__O_ -1 -10.1245 154.843 20 25 1000 -10.2000 154.800 TC 30 1000 -10.0000 155.200 TC 30 1000 12 231
1973060S08161 1973 28 SP EA MADGE 1973-03-02 03:00:00 TS -10.5249 154.476 main 385 373 ______P__P__P_ -1 -10.5737 154.398 20 25 1000 -10.5963 154.311 TC 30 1000 -10.4048 154.720 TC 30 1000 13 224
1973060S08161 1973 28 SP EA MADGE 1973-03-02 06:00:00 TS -11.0168 154.049 main 363 356 ______P__P__O_ -1 -11.0856 153.968 20 25 1000 -11.0648 153.880 TC 30 1000 -10.9000 154.300 TC 30 1000 13 220
1973060S08161 1973 28 SP EA MADGE 1973-03-02 07:00:00 TS -11.1851 153.906 main 356 332 ______P__P__P_ -1 -11.2589 153.823 20 25 1000 -11.2276 153.740 TC 30 1000 -11.0688 154.155 TC 30 1000 13 220
1973060S08161 1973 28 SP EA MADGE 1973-03-02 09:00:00 TS -11.5202 153.615 main 332 314 ______P__P__P_ -1 -11.5947 153.522 20 25 1000 -11.5510 153.458 TC 30 1000 -11.4149 153.865 TC 30 1000 13 222
1973060S08161 1973 28 SP EA MADGE 1973-03-02 11:00:00 TS -11.8352 153.307 25 1000 bom main 314 309 ______O__P__P_ -1 -11.9000 153.200 20 25 1000 2.00000 -11.8579 153.160 TC 30 1000 -11.7478 153.561 TC 30 1000 45 45 13 225
1973060S08161 1973 28 SP EA MADGE 1973-03-02 12:00:00 TS -11.9784 153.142 main 305 281 ______P__O__O_ -1 -12.0353 153.027 20 25 1000 -12.0000 153.000 TC 30 1000 -11.9000 153.400 TC 30 1000 13 233
1973060S08161 1973 28 SP EA MADGE 1973-03-02 15:00:00 TS -12.3599 152.607 main 289 275 ______P__P__P_ -1 -12.4005 152.482 20 25 1000 -12.3841 152.468 TC 30 1000 -12.2949 152.872 TC 27 1000 13 236
1973060S08161 1973 28 SP EA MADGE 1973-03-02 17:00:00 TS -12.5709 152.229 25 1001 bom main 277 271 ______O__P__P_ -1 -12.6000 152.100 20 25 1001 2.00000 -12.6045 152.093 TC 30 1000 -12.5083 152.494 TC 25 1000 45 45 13 242
1973060S08161 1973 28 SP EA MADGE 1973-03-02 18:00:00 TS -12.6615 152.035 main 274 269 ______P__O__O_ -1 -12.6844 151.906 20 25 1001 -12.7000 151.900 TC 30 1001 -12.6000 152.300 TC 25 1001 13 246
1973060S08161 1973 28 SP EA MADGE 1973-03-02 19:00:00 TS -12.7422 151.840 main 263 261 ______P__P__P_ -1 -12.7584 151.708 20 25 1001 -12.7844 151.706 TC 29 1001 -12.6837 152.106 TC 25 1001 12 250
1973060S08161 1973 28 SP EA MADGE 1973-03-02 21:00:00 TS -12.8772 151.440 main 268 261 ______P__P__P_ -1 -12.8849 151.306 20 25 1001 -12.9243 151.308 TC 27 1001 -12.8224 151.707 TC 25 1001 12 252
1973060S08161 1973 28 SP EA MADGE 1973-03-02 23:00:00 TS -12.9946 151.035 25 1002 bom main 265 263 ______O__P__P_ -1 -13.0000 150.900 20 25 1002 2.00000 -13.0426 150.903 TC 25 1001 -12.9411 151.303 TC 25 1001 45 45 12 253
1973060S08161 1973 28 SP EA MADGE 1973-03-03 00:00:00 TS -13.0555 150.833 main 272 269 ______P__O__O_ -1 -13.0591 150.698 20 25 1001 -13.1000 150.700 TC 25 1002 -13.0000 151.100 TC 25 1002 12 251
1973060S08161 1973 28 SP EA MADGE 1973-03-03 03:00:00 TS -13.2573 150.238 main 291 291 ______P__P__P_ -1 -13.2480 150.094 20 25 1001 -13.2833 150.095 TC 26 1001 -13.1928 150.498 TC 25 1001 12 251
1973060S08161 1973 28 SP EA MADGE 1973-03-03 06:00:00 TS -13.4594 149.642 main 320 320 ______P__P__O_ -1 -13.4497 149.495 20 25 1001 -13.4813 149.495 TC 27 1001 -13.4000 149.900 TC 25 1001 13 251
1973060S08161 1973 28 SP EA MADGE 1973-03-03 07:00:00 TS -13.5318 149.419 main 325 325 ______P__P____ -1 -13.5189 149.296 20 25 1001 -13.5497 149.295 TC 27 1001 TC 13 251
1973060S08161 1973 28 SP EA MADGE 1973-03-03 09:00:00 TS -13.6669 149.010 main 360 360 ______P__P____ -1 -13.6590 148.898 20 25 1001 -13.6887 148.897 TC 28 1001 TC 13 252
1973060S08161 1973 28 SP EA MADGE 1973-03-03 11:00:00 TS -13.8023 148.585 25 1001 bom main 380 355 ______O__P____ -1 -13.8000 148.500 20 25 1001 2.00000 -13.8295 148.499 TC 29 1001 TC 45 45 14 252
1973060S08161 1973 28 SP EA MADGE 1973-03-03 12:00:00 TS -13.8843 148.307 main 345 _________O____ -1 20 -13.9000 148.300 TC 30 1001 17 253

Digital Typhoon Data and Search

About IBTrACS Database

This database is a web-friendly format of International Best Track Archive for Climate Stewardship (IBTrACS), a global best track data archive curated by NOAA dating back to 1842.

Updated: 2021-10-19